Airfield :







YOU CAN JOIN US ON...

 
LOGIN :

Register | Disclaimer

   EN    FR    IT 

 









Legend :    VFR   Marginal VFR   IFR   Intensive IFR   Very Intensive IFR
Visi :
Ceiling :
>= 8 km
>= 3000ft
5 to 8 km
1000 to 3000 ft
1500m to 5 km
500 to 1000 ft
800 to 1500m
200 to 500 ft
< 800m
< 200 ft
Symbols :   Thunderstorms  Fog  Heavy snow  Heavy precipitations  Wind > 20 kt






- Airport Elevation : 71 ft
- IATA code : YBC


CYBC - Baie Comeau

CURRENT METAR :
  • 070851Z AUTO 09006KT 6SM BR CLR 08/08 A2983 RMK SLP105

EXPIRED METARs :
  • 070838Z AUTO VRB02KT 4SM BR FEW240 07/07 A2984 RMK SLP109
  • 070800Z AUTO 06003KT 9SM FEW220 09/08 A2984 RMK SLP108
  • 070700Z AUTO 09005KT 9SM BKN120 09/08 A2984 RMK SLP108

TAF TAF CYBC
Valid from the 07 at 08:00 until the 07 at 20:00 UTC


070741Z 0708/0720 08008KT P6SM FEW020 BKN070
TEMPO 0708/0716 5SM -RA BR SCT006 BKN020 OVC070
FM071600 08015G25KT 2SM -RA BR OVC006 RMK FCST BASED ON AUTO OBS. NXT FCST BY 071400Z
CZUL FIR / North America



MET'MAP, your aeronautical weather chart ! - Copyright ORBIFLY December 2007 - Disclaimer

ORBIFLY MET'MAP TEAM :

Programming & Development : Alexandra Zaïnal
Original concept : Baudouin d'Aumeries
Technical & hardware support : Manuel Goepfert
Assistance : Marc-Olivier Méhu




SOURCES & CREDITS :

   NOAA